sensor_id;sensor_type;location;lat;lon;timestamp;pressure;altitude;pressure_sealevel;temperature
65290;BMP180;51893;59.754;10.110;2022-07-31T00:00:27;101648.80;;;16.90
65290;BMP180;51893;59.754;10.110;2022-07-31T00:03:03;101644.20;;;16.80
65290;BMP180;51893;59.754;10.110;2022-07-31T00:05:32;101641.60;;;16.70
65290;BMP180;51893;59.754;10.110;2022-07-31T00:08:08;101634.40;;;16.60
65290;BMP180;51893;59.754;10.110;2022-07-31T00:10:37;101636.20;;;16.60
65290;BMP180;51893;59.754;10.110;2022-07-31T00:13:05;101632.80;;;16.50
65290;BMP180;51893;59.754;10.110;2022-07-31T00:15:32;101626.80;;;16.60
65290;BMP180;51893;59.754;10.110;2022-07-31T00:18:00;101626.20;;;16.60
65290;BMP180;51893;59.754;10.110;2022-07-31T00:20:28;101626.60;;;16.50
65290;BMP180;51893;59.754;10.110;2022-07-31T00:22:56;101628.40;;;16.50
65290;BMP180;51893;59.754;10.110;2022-07-31T00:25:24;101625.20;;;16.50
65290;BMP180;51893;59.754;10.110;2022-07-31T00:27:52;101625.20;;;16.50
65290;BMP180;51893;59.754;10.110;2022-07-31T00:30:20;101625.40;;;16.40
65290;BMP180;51893;59.754;10.110;2022-07-31T00:32:48;101625.60;;;16.32
65290;BMP180;51893;59.754;10.110;2022-07-31T00:35:18;101625.60;;;16.20
65290;BMP180;51893;59.754;10.110;2022-07-31T00:37:47;101622.00;;;16.10
65290;BMP180;51893;59.754;10.110;2022-07-31T00:40:16;101620.80;;;16.00
65290;BMP180;51893;59.754;10.110;2022-07-31T00:42:44;101617.20;;;16.00
65290;BMP180;51893;59.754;10.110;2022-07-31T00:45:13;101626.00;;;16.00
65290;BMP180;51893;59.754;10.110;2022-07-31T00:47:42;101629.40;;;16.10
65290;BMP180;51893;59.754;10.110;2022-07-31T00:50:11;101627.80;;;16.10
65290;BMP180;51893;59.754;10.110;2022-07-31T00:52:39;101624.60;;;16.10
65290;BMP180;51893;59.754;10.110;2022-07-31T00:55:07;101618.80;;;16.00
65290;BMP180;51893;59.754;10.110;2022-07-31T00:57:36;101621.80;;;15.90
65290;BMP180;51893;59.754;10.110;2022-07-31T01:00:05;101618.60;;;15.84
65290;BMP180;51893;59.754;10.110;2022-07-31T01:02:33;101617.60;;;15.80
65290;BMP180;51893;59.754;10.110;2022-07-31T01:05:01;101616.40;;;15.80
65290;BMP180;51893;59.754;10.110;2022-07-31T01:07:29;101619.80;;;15.70
65290;BMP180;51893;59.754;10.110;2022-07-31T01:09:59;101615.60;;;15.70
65290;BMP180;51893;59.754;10.110;2022-07-31T01:12:37;101609.00;;;15.60
65290;BMP180;51893;59.754;10.110;2022-07-31T01:15:08;101605.40;;;15.58
65290;BMP180;51893;59.754;10.110;2022-07-31T01:17:39;101602.60;;;15.50
65290;BMP180;51893;59.754;10.110;2022-07-31T01:20:10;101599.00;;;15.50
65290;BMP180;51893;59.754;10.110;2022-07-31T01:31:45;101586.20;;;15.20
65290;BMP180;51893;59.754;10.110;2022-07-31T01:37:14;101584.40;;;15.00
65290;BMP180;51893;59.754;10.110;2022-07-31T01:39:50;101577.00;;;14.90
65290;BMP180;51893;59.754;10.110;2022-07-31T01:42:21;101577.80;;;14.90
65290;BMP180;51893;59.754;10.110;2022-07-31T01:44:56;101580.00;;;14.90
65290;BMP180;51893;59.754;10.110;2022-07-31T01:47:25;101575.20;;;14.90
65290;BMP180;51893;59.754;10.110;2022-07-31T01:49:56;101574.40;;;14.86
65290;BMP180;51893;59.754;10.110;2022-07-31T01:52:27;101574.40;;;14.80
65290;BMP180;51893;59.754;10.110;2022-07-31T01:54:57;101579.80;;;14.80
65290;BMP180;51893;59.754;10.110;2022-07-31T01:57:28;101579.60;;;14.80
65290;BMP180;51893;59.754;10.110;2022-07-31T02:00:02;101575.40;;;14.70
65290;BMP180;51893;59.754;10.110;2022-07-31T02:02:33;101575.80;;;14.68
65290;BMP180;51893;59.754;10.110;2022-07-31T02:05:09;101573.60;;;14.64
65290;BMP180;51893;59.754;10.110;2022-07-31T02:07:43;101573.40;;;14.70
65290;BMP180;51893;59.754;10.110;2022-07-31T02:10:15;101574.60;;;14.80
65290;BMP180;51893;59.754;10.110;2022-07-31T02:12:44;101571.20;;;14.90
65290;BMP180;51893;59.754;10.110;2022-07-31T02:15:14;101576.20;;;14.90
65290;BMP180;51893;59.754;10.110;2022-07-31T02:17:45;101572.20;;;14.90
65290;BMP180;51893;59.754;10.110;2022-07-31T02:20:14;101574.40;;;14.90
65290;BMP180;51893;59.754;10.110;2022-07-31T02:22:42;101575.80;;;14.90
65290;BMP180;51893;59.754;10.110;2022-07-31T02:25:13;101577.80;;;14.80
65290;BMP180;51893;59.754;10.110;2022-07-31T02:27:42;101576.20;;;14.70
65290;BMP180;51893;59.754;10.110;2022-07-31T02:30:28;101573.40;;;14.62
65290;BMP180;51893;59.754;10.110;2022-07-31T02:33:12;101569.00;;;14.60
65290;BMP180;51893;59.754;10.110;2022-07-31T02:35:41;101564.80;;;14.52
65290;BMP180;51893;59.754;10.110;2022-07-31T02:38:14;101564.60;;;14.50
65290;BMP180;51893;59.754;10.110;2022-07-31T02:40:54;101562.20;;;14.50
65290;BMP180;51893;59.754;10.110;2022-07-31T02:43:25;101553.20;;;14.46
65290;BMP180;51893;59.754;10.110;2022-07-31T02:45:56;101556.20;;;14.40
65290;BMP180;51893;59.754;10.110;2022-07-31T02:48:25;101555.80;;;14.30
65290;BMP180;51893;59.754;10.110;2022-07-31T02:50:54;101551.60;;;14.30
65290;BMP180;51893;59.754;10.110;2022-07-31T02:53:23;101547.40;;;14.20
65290;BMP180;51893;59.754;10.110;2022-07-31T02:55:52;101545.20;;;14.20
65290;BMP180;51893;59.754;10.110;2022-07-31T02:58:20;101545.20;;;14.20
65290;BMP180;51893;59.754;10.110;2022-07-31T03:01:01;101542.40;;;14.10
65290;BMP180;51893;59.754;10.110;2022-07-31T03:03:30;101541.80;;;14.10
65290;BMP180;51893;59.754;10.110;2022-07-31T03:05:58;101544.20;;;14.16
65290;BMP180;51893;59.754;10.110;2022-07-31T03:08:27;101541.80;;;14.12
65290;BMP180;51893;59.754;10.110;2022-07-31T03:10:55;101542.60;;;14.18
65290;BMP180;51893;59.754;10.110;2022-07-31T03:13:27;101544.40;;;14.10
65290;BMP180;51893;59.754;10.110;2022-07-31T03:15:57;101540.00;;;14.00
65290;BMP180;51893;59.754;10.110;2022-07-31T03:18:26;101544.60;;;13.90
65290;BMP180;51893;59.754;10.110;2022-07-31T03:20:55;101540.60;;;13.90
65290;BMP180;51893;59.754;10.110;2022-07-31T03:23:27;101543.40;;;13.90
65290;BMP180;51893;59.754;10.110;2022-07-31T03:26:05;101540.80;;;13.90
65290;BMP180;51893;59.754;10.110;2022-07-31T03:28:34;101542.40;;;13.90
65290;BMP180;51893;59.754;10.110;2022-07-31T03:31:03;101545.20;;;14.00
65290;BMP180;51893;59.754;10.110;2022-07-31T03:33:31;101547.20;;;13.90
65290;BMP180;51893;59.754;10.110;2022-07-31T03:35:59;101543.20;;;13.90
65290;BMP180;51893;59.754;10.110;2022-07-31T03:38:27;101545.40;;;13.90
65290;BMP180;51893;59.754;10.110;2022-07-31T03:41:10;101536.40;;;13.90
65290;BMP180;51893;59.754;10.110;2022-07-31T03:43:40;101541.60;;;13.88
65290;BMP180;51893;59.754;10.110;2022-07-31T03:46:18;101540.60;;;13.80
65290;BMP180;51893;59.754;10.110;2022-07-31T03:48:47;101538.60;;;13.80
65290;BMP180;51893;59.754;10.110;2022-07-31T03:51:19;101529.40;;;13.80
65290;BMP180;51893;59.754;10.110;2022-07-31T03:53:48;101528.80;;;13.80
65290;BMP180;51893;59.754;10.110;2022-07-31T03:56:17;101532.40;;;13.80
65290;BMP180;51893;59.754;10.110;2022-07-31T03:58:45;101529.20;;;13.80
65290;BMP180;51893;59.754;10.110;2022-07-31T04:01:20;101527.00;;;13.80
65290;BMP180;51893;59.754;10.110;2022-07-31T04:03:58;101526.60;;;13.80
65290;BMP180;51893;59.754;10.110;2022-07-31T04:06:26;101519.40;;;13.80
65290;BMP180;51893;59.754;10.110;2022-07-31T04:08:53;101519.00;;;13.86
65290;BMP180;51893;59.754;10.110;2022-07-31T04:11:21;101520.40;;;13.90
65290;BMP180;51893;59.754;10.110;2022-07-31T04:13:49;101516.40;;;14.00
65290;BMP180;51893;59.754;10.110;2022-07-31T04:16:17;101509.20;;;14.10
65290;BMP180;51893;59.754;10.110;2022-07-31T04:18:45;101508.40;;;14.20
65290;BMP180;51893;59.754;10.110;2022-07-31T04:21:17;101503.00;;;14.30
65290;BMP180;51893;59.754;10.110;2022-07-31T04:23:45;101503.60;;;14.40
65290;BMP180;51893;59.754;10.110;2022-07-31T04:26:17;101499.20;;;14.50
65290;BMP180;51893;59.754;10.110;2022-07-31T04:28:52;101498.00;;;14.60
65290;BMP180;51893;59.754;10.110;2022-07-31T04:31:20;101498.20;;;14.64
65290;BMP180;51893;59.754;10.110;2022-07-31T04:33:49;101497.20;;;14.70
65290;BMP180;51893;59.754;10.110;2022-07-31T04:36:23;101495.20;;;14.80
65290;BMP180;51893;59.754;10.110;2022-07-31T04:38:59;101496.40;;;14.90
65290;BMP180;51893;59.754;10.110;2022-07-31T04:41:27;101500.00;;;15.00
65290;BMP180;51893;59.754;10.110;2022-07-31T04:43:56;101500.80;;;15.10
65290;BMP180;51893;59.754;10.110;2022-07-31T04:46:25;101505.20;;;15.10
65290;BMP180;51893;59.754;10.110;2022-07-31T04:48:53;101503.80;;;15.20
65290;BMP180;51893;59.754;10.110;2022-07-31T04:51:23;101504.60;;;15.30
65290;BMP180;51893;59.754;10.110;2022-07-31T04:53:51;101504.40;;;15.32
65290;BMP180;51893;59.754;10.110;2022-07-31T04:56:19;101501.20;;;15.40
65290;BMP180;51893;59.754;10.110;2022-07-31T04:59:11;101503.80;;;15.50
65290;BMP180;51893;59.754;10.110;2022-07-31T05:01:41;101500.20;;;15.50
65290;BMP180;51893;59.754;10.110;2022-07-31T05:04:10;101503.80;;;15.60
65290;BMP180;51893;59.754;10.110;2022-07-31T05:06:43;101507.40;;;15.64
65290;BMP180;51893;59.754;10.110;2022-07-31T05:09:16;101503.60;;;15.70
65290;BMP180;51893;59.754;10.110;2022-07-31T05:11:46;101500.60;;;15.80
65290;BMP180;51893;59.754;10.110;2022-07-31T05:14:18;101499.40;;;15.90
65290;BMP180;51893;59.754;10.110;2022-07-31T05:16:47;101497.60;;;15.98
65290;BMP180;51893;59.754;10.110;2022-07-31T05:19:15;101493.60;;;16.00
65290;BMP180;51893;59.754;10.110;2022-07-31T05:21:45;101492.80;;;16.10
65290;BMP180;51893;59.754;10.110;2022-07-31T05:24:21;101492.40;;;16.10
65290;BMP180;51893;59.754;10.110;2022-07-31T05:27:02;101497.60;;;16.16
65290;BMP180;51893;59.754;10.110;2022-07-31T05:29:31;101502.00;;;16.26
65290;BMP180;51893;59.754;10.110;2022-07-31T05:32:00;101494.20;;;16.32
65290;BMP180;51893;59.754;10.110;2022-07-31T05:34:29;101494.40;;;16.38
65290;BMP180;51893;59.754;10.110;2022-07-31T05:36:59;101495.40;;;16.30
65290;BMP180;51893;59.754;10.110;2022-07-31T05:39:30;101491.00;;;16.30
65290;BMP180;51893;59.754;10.110;2022-07-31T05:41:58;101488.00;;;16.30
65290;BMP180;51893;59.754;10.110;2022-07-31T05:44:26;101490.60;;;16.40
65290;BMP180;51893;59.754;10.110;2022-07-31T05:46:53;101488.80;;;16.48
65290;BMP180;51893;59.754;10.110;2022-07-31T05:49:20;101486.40;;;16.50
65290;BMP180;51893;59.754;10.110;2022-07-31T05:51:49;101481.60;;;16.60
65290;BMP180;51893;59.754;10.110;2022-07-31T05:54:21;101480.80;;;16.68
65290;BMP180;51893;59.754;10.110;2022-07-31T05:56:48;101487.80;;;16.70
65290;BMP180;51893;59.754;10.110;2022-07-31T05:59:16;101484.00;;;16.80
65290;BMP180;51893;59.754;10.110;2022-07-31T06:01:44;101480.00;;;16.90
65290;BMP180;51893;59.754;10.110;2022-07-31T06:04:13;101483.20;;;16.90
65290;BMP180;51893;59.754;10.110;2022-07-31T06:06:41;101482.60;;;16.90
65290;BMP180;51893;59.754;10.110;2022-07-31T06:09:08;101479.60;;;17.00
65290;BMP180;51893;59.754;10.110;2022-07-31T06:11:36;101474.60;;;17.00
65290;BMP180;51893;59.754;10.110;2022-07-31T06:14:04;101473.00;;;17.10
65290;BMP180;51893;59.754;10.110;2022-07-31T06:16:32;101479.40;;;17.10
65290;BMP180;51893;59.754;10.110;2022-07-31T06:18:59;101470.40;;;17.10
65290;BMP180;51893;59.754;10.110;2022-07-31T06:21:27;101471.40;;;17.20
65290;BMP180;51893;59.754;10.110;2022-07-31T06:23:57;101467.60;;;17.20
65290;BMP180;51893;59.754;10.110;2022-07-31T06:26:25;101472.20;;;17.30
65290;BMP180;51893;59.754;10.110;2022-07-31T06:28:54;101473.60;;;17.30
65290;BMP180;51893;59.754;10.110;2022-07-31T06:31:21;101471.40;;;17.38
65290;BMP180;51893;59.754;10.110;2022-07-31T06:33:49;101467.60;;;17.40
65290;BMP180;51893;59.754;10.110;2022-07-31T06:36:19;101468.60;;;17.40
65290;BMP180;51893;59.754;10.110;2022-07-31T06:38:47;101465.40;;;17.50
65290;BMP180;51893;59.754;10.110;2022-07-31T06:41:14;101470.40;;;17.50
65290;BMP180;51893;59.754;10.110;2022-07-31T06:44:02;101466.20;;;17.60
65290;BMP180;51893;59.754;10.110;2022-07-31T06:46:31;101461.80;;;17.60
65290;BMP180;51893;59.754;10.110;2022-07-31T06:48:59;101462.40;;;17.62
65290;BMP180;51893;59.754;10.110;2022-07-31T06:51:29;101462.40;;;17.70
65290;BMP180;51893;59.754;10.110;2022-07-31T06:54:01;101460.40;;;17.80
65290;BMP180;51893;59.754;10.110;2022-07-31T06:56:31;101455.80;;;17.80
65290;BMP180;51893;59.754;10.110;2022-07-31T06:59:00;101461.60;;;17.90
65290;BMP180;51893;59.754;10.110;2022-07-31T07:01:29;101454.40;;;17.90
65290;BMP180;51893;59.754;10.110;2022-07-31T07:03:57;101454.20;;;17.98
65290;BMP180;51893;59.754;10.110;2022-07-31T07:06:26;101452.00;;;18.00
65290;BMP180;51893;59.754;10.110;2022-07-31T07:08:53;101454.20;;;18.00
65290;BMP180;51893;59.754;10.110;2022-07-31T07:11:21;101454.00;;;18.10
65290;BMP180;51893;59.754;10.110;2022-07-31T07:13:49;101451.60;;;18.10
65290;BMP180;51893;59.754;10.110;2022-07-31T07:16:17;101454.20;;;18.20
65290;BMP180;51893;59.754;10.110;2022-07-31T07:18:45;101454.40;;;18.20
65290;BMP180;51893;59.754;10.110;2022-07-31T07:21:13;101458.80;;;18.30
65290;BMP180;51893;59.754;10.110;2022-07-31T07:23:41;101455.60;;;18.30
65290;BMP180;51893;59.754;10.110;2022-07-31T07:26:10;101453.80;;;18.40
65290;BMP180;51893;59.754;10.110;2022-07-31T07:28:38;101447.80;;;18.40
65290;BMP180;51893;59.754;10.110;2022-07-31T07:31:06;101446.40;;;18.50
65290;BMP180;51893;59.754;10.110;2022-07-31T07:33:36;101448.20;;;18.50
65290;BMP180;51893;59.754;10.110;2022-07-31T07:36:12;101448.80;;;18.60
65290;BMP180;51893;59.754;10.110;2022-07-31T07:38:52;101448.40;;;18.60
65290;BMP180;51893;59.754;10.110;2022-07-31T07:41:23;101447.60;;;18.70
65290;BMP180;51893;59.754;10.110;2022-07-31T07:43:52;101446.20;;;18.70
65290;BMP180;51893;59.754;10.110;2022-07-31T07:46:22;101442.60;;;18.74
65290;BMP180;51893;59.754;10.110;2022-07-31T07:48:50;101441.20;;;18.80
65290;BMP180;51893;59.754;10.110;2022-07-31T07:51:19;101438.00;;;18.90
65290;BMP180;51893;59.754;10.110;2022-07-31T07:53:47;101440.60;;;19.00
65290;BMP180;51893;59.754;10.110;2022-07-31T07:56:16;101440.40;;;19.10
65290;BMP180;51893;59.754;10.110;2022-07-31T07:58:44;101436.20;;;19.20
65290;BMP180;51893;59.754;10.110;2022-07-31T08:01:12;101433.40;;;19.30
65290;BMP180;51893;59.754;10.110;2022-07-31T08:03:41;101433.20;;;19.32
65290;BMP180;51893;59.754;10.110;2022-07-31T08:06:20;101432.80;;;19.40
65290;BMP180;51893;59.754;10.110;2022-07-31T08:08:49;101433.20;;;19.50
65290;BMP180;51893;59.754;10.110;2022-07-31T08:11:17;101435.40;;;19.52
65290;BMP180;51893;59.754;10.110;2022-07-31T08:13:45;101433.80;;;19.60
65290;BMP180;51893;59.754;10.110;2022-07-31T08:16:19;101433.80;;;19.60
65290;BMP180;51893;59.754;10.110;2022-07-31T08:18:48;101431.60;;;19.70
65290;BMP180;51893;59.754;10.110;2022-07-31T08:21:16;101428.00;;;19.76
65290;BMP180;51893;59.754;10.110;2022-07-31T08:23:44;101427.00;;;19.80
65290;BMP180;51893;59.754;10.110;2022-07-31T08:26:12;101425.80;;;19.90
65290;BMP180;51893;59.754;10.110;2022-07-31T08:28:40;101426.80;;;19.90
65290;BMP180;51893;59.754;10.110;2022-07-31T08:31:18;101427.60;;;20.00
65290;BMP180;51893;59.754;10.110;2022-07-31T08:33:46;101428.80;;;20.04
65290;BMP180;51893;59.754;10.110;2022-07-31T08:36:15;101428.60;;;20.10
65290;BMP180;51893;59.754;10.110;2022-07-31T08:38:45;101434.00;;;20.20
65290;BMP180;51893;59.754;10.110;2022-07-31T08:41:14;101436.60;;;20.30
65290;BMP180;51893;59.754;10.110;2022-07-31T08:43:42;101442.00;;;20.30
65290;BMP180;51893;59.754;10.110;2022-07-31T08:46:38;101444.00;;;20.40
65290;BMP180;51893;59.754;10.110;2022-07-31T08:49:08;101443.20;;;20.40
65290;BMP180;51893;59.754;10.110;2022-07-31T08:51:42;101445.80;;;20.40
65290;BMP180;51893;59.754;10.110;2022-07-31T08:54:31;101448.80;;;20.50
65290;BMP180;51893;59.754;10.110;2022-07-31T08:57:01;101446.60;;;20.50
65290;BMP180;51893;59.754;10.110;2022-07-31T08:59:30;101448.80;;;20.60
65290;BMP180;51893;59.754;10.110;2022-07-31T09:01:58;101445.60;;;20.60
65290;BMP180;51893;59.754;10.110;2022-07-31T09:04:27;101446.80;;;20.70
65290;BMP180;51893;59.754;10.110;2022-07-31T09:06:55;101454.00;;;20.70
65290;BMP180;51893;59.754;10.110;2022-07-31T09:09:28;101450.80;;;20.70
65290;BMP180;51893;59.754;10.110;2022-07-31T09:12:29;101446.00;;;20.70
65290;BMP180;51893;59.754;10.110;2022-07-31T09:15:00;101448.00;;;20.80
65290;BMP180;51893;59.754;10.110;2022-07-31T09:17:34;101454.60;;;20.90
65290;BMP180;51893;59.754;10.110;2022-07-31T09:20:03;101449.80;;;21.00
65290;BMP180;51893;59.754;10.110;2022-07-31T09:22:32;101452.40;;;21.00
65290;BMP180;51893;59.754;10.110;2022-07-31T09:25:13;101449.40;;;21.04
65290;BMP180;51893;59.754;10.110;2022-07-31T09:27:47;101453.80;;;21.10
65290;BMP180;51893;59.754;10.110;2022-07-31T09:30:17;101454.80;;;21.18
65290;BMP180;51893;59.754;10.110;2022-07-31T09:32:45;101451.60;;;21.20
65290;BMP180;51893;59.754;10.110;2022-07-31T09:35:13;101462.20;;;21.20
65290;BMP180;51893;59.754;10.110;2022-07-31T09:37:45;101465.00;;;21.20
65290;BMP180;51893;59.754;10.110;2022-07-31T09:40:14;101469.40;;;21.16
65290;BMP180;51893;59.754;10.110;2022-07-31T09:42:47;101464.80;;;21.20
65290;BMP180;51893;59.754;10.110;2022-07-31T09:45:23;101464.60;;;21.20
65290;BMP180;51893;59.754;10.110;2022-07-31T09:48:07;101461.00;;;21.20
65290;BMP180;51893;59.754;10.110;2022-07-31T09:51:00;101464.20;;;21.30
65290;BMP180;51893;59.754;10.110;2022-07-31T09:53:46;101471.60;;;21.30
65290;BMP180;51893;59.754;10.110;2022-07-31T09:56:16;101465.00;;;21.30
65290;BMP180;51893;59.754;10.110;2022-07-31T09:58:44;101464.40;;;21.40
65290;BMP180;51893;59.754;10.110;2022-07-31T10:01:12;101467.80;;;21.40
65290;BMP180;51893;59.754;10.110;2022-07-31T10:03:40;101468.60;;;21.40
65290;BMP180;51893;59.754;10.110;2022-07-31T10:06:11;101466.40;;;21.40
65290;BMP180;51893;59.754;10.110;2022-07-31T10:08:43;101464.80;;;21.46
65290;BMP180;51893;59.754;10.110;2022-07-31T10:11:18;101465.60;;;21.50
65290;BMP180;51893;59.754;10.110;2022-07-31T10:13:50;101468.20;;;21.50
65290;BMP180;51893;59.754;10.110;2022-07-31T10:16:20;101471.80;;;21.50
65290;BMP180;51893;59.754;10.110;2022-07-31T10:18:59;101476.40;;;21.50
65290;BMP180;51893;59.754;10.110;2022-07-31T10:21:37;101477.00;;;21.50
65290;BMP180;51893;59.754;10.110;2022-07-31T10:24:07;101482.00;;;21.50
65290;BMP180;51893;59.754;10.110;2022-07-31T10:26:36;101480.80;;;21.50
65290;BMP180;51893;59.754;10.110;2022-07-31T10:29:26;101484.20;;;21.56
65290;BMP180;51893;59.754;10.110;2022-07-31T10:32:00;101485.20;;;21.60
65290;BMP180;51893;59.754;10.110;2022-07-31T10:34:28;101486.40;;;21.60
65290;BMP180;51893;59.754;10.110;2022-07-31T10:37:09;101487.40;;;21.60
65290;BMP180;51893;59.754;10.110;2022-07-31T10:39:48;101486.60;;;21.60
65290;BMP180;51893;59.754;10.110;2022-07-31T10:45:18;101485.20;;;21.80
65290;BMP180;51893;59.754;10.110;2022-07-31T10:47:58;101483.80;;;21.72
65290;BMP180;51893;59.754;10.110;2022-07-31T10:50:27;101483.20;;;21.70
65290;BMP180;51893;59.754;10.110;2022-07-31T10:53:14;101480.40;;;21.70
65290;BMP180;51893;59.754;10.110;2022-07-31T10:55:43;101480.60;;;21.80
65290;BMP180;51893;59.754;10.110;2022-07-31T10:58:14;101478.20;;;21.80
65290;BMP180;51893;59.754;10.110;2022-07-31T11:00:43;101474.80;;;21.80
65290;BMP180;51893;59.754;10.110;2022-07-31T11:03:15;101473.60;;;21.80
65290;BMP180;51893;59.754;10.110;2022-07-31T11:08:52;101464.00;;;21.70
65290;BMP180;51893;59.754;10.110;2022-07-31T11:11:35;101464.60;;;21.76
65290;BMP180;51893;59.754;10.110;2022-07-31T11:14:03;101458.40;;;21.80
65290;BMP180;51893;59.754;10.110;2022-07-31T11:16:31;101454.40;;;21.80
65290;BMP180;51893;59.754;10.110;2022-07-31T11:19:06;101456.20;;;21.90
65290;BMP180;51893;59.754;10.110;2022-07-31T11:21:40;101456.00;;;21.90
65290;BMP180;51893;59.754;10.110;2022-07-31T11:24:20;101449.20;;;21.96
65290;BMP180;51893;59.754;10.110;2022-07-31T11:29:30;101455.80;;;22.04
65290;BMP180;51893;59.754;10.110;2022-07-31T11:32:18;101452.00;;;22.10
65290;BMP180;51893;59.754;10.110;2022-07-31T11:34:55;101454.80;;;22.10
65290;BMP180;51893;59.754;10.110;2022-07-31T11:37:28;101450.20;;;22.10
65290;BMP180;51893;59.754;10.110;2022-07-31T11:40:13;101443.80;;;22.10
65290;BMP180;51893;59.754;10.110;2022-07-31T11:42:43;101442.80;;;22.16
65290;BMP180;51893;59.754;10.110;2022-07-31T11:45:13;101444.40;;;22.20
65290;BMP180;51893;59.754;10.110;2022-07-31T11:47:46;101437.20;;;22.28
65290;BMP180;51893;59.754;10.110;2022-07-31T11:50:41;101439.20;;;22.30
65290;BMP180;51893;59.754;10.110;2022-07-31T11:53:12;101442.80;;;22.40
65290;BMP180;51893;59.754;10.110;2022-07-31T11:55:56;101437.00;;;22.40
65290;BMP180;51893;59.754;10.110;2022-07-31T11:58:27;101438.20;;;22.40
65290;BMP180;51893;59.754;10.110;2022-07-31T12:01:01;101435.60;;;22.40
65290;BMP180;51893;59.754;10.110;2022-07-31T12:03:31;101433.20;;;22.40
65290;BMP180;51893;59.754;10.110;2022-07-31T12:06:00;101430.20;;;22.50
65290;BMP180;51893;59.754;10.110;2022-07-31T12:08:28;101426.40;;;22.60
65290;BMP180;51893;59.754;10.110;2022-07-31T12:10:59;101428.00;;;22.60
65290;BMP180;51893;59.754;10.110;2022-07-31T12:13:28;101427.00;;;22.60
65290;BMP180;51893;59.754;10.110;2022-07-31T12:16:08;101429.60;;;22.70
65290;BMP180;51893;59.754;10.110;2022-07-31T12:21:18;101420.80;;;22.70
65290;BMP180;51893;59.754;10.110;2022-07-31T12:23:51;101415.80;;;22.70
65290;BMP180;51893;59.754;10.110;2022-07-31T12:26:27;101413.60;;;22.70
65290;BMP180;51893;59.754;10.110;2022-07-31T12:31:29;101401.40;;;22.80
65290;BMP180;51893;59.754;10.110;2022-07-31T12:33:58;101405.00;;;22.80
65290;BMP180;51893;59.754;10.110;2022-07-31T12:36:25;101404.00;;;22.90
65290;BMP180;51893;59.754;10.110;2022-07-31T12:39:02;101401.80;;;22.86
65290;BMP180;51893;59.754;10.110;2022-07-31T12:41:41;101397.80;;;22.80
65290;BMP180;51893;59.754;10.110;2022-07-31T12:44:11;101394.40;;;22.86
65290;BMP180;51893;59.754;10.110;2022-07-31T12:46:41;101389.40;;;22.82
65290;BMP180;51893;59.754;10.110;2022-07-31T12:49:08;101398.40;;;22.80
65290;BMP180;51893;59.754;10.110;2022-07-31T12:51:39;101409.80;;;22.60
65290;BMP180;51893;59.754;10.110;2022-07-31T12:54:15;101404.00;;;22.50
65290;BMP180;51893;59.754;10.110;2022-07-31T12:56:44;101405.60;;;22.20
65290;BMP180;51893;59.754;10.110;2022-07-31T12:59:13;101411.20;;;22.04
65290;BMP180;51893;59.754;10.110;2022-07-31T13:01:41;101404.00;;;21.86
65290;BMP180;51893;59.754;10.110;2022-07-31T13:04:09;101400.60;;;21.60
65290;BMP180;51893;59.754;10.110;2022-07-31T13:06:47;101390.00;;;21.40
65290;BMP180;51893;59.754;10.110;2022-07-31T13:09:16;101387.00;;;21.28
65290;BMP180;51893;59.754;10.110;2022-07-31T13:11:45;101379.20;;;21.20
65290;BMP180;51893;59.754;10.110;2022-07-31T13:14:16;101380.60;;;21.10
65290;BMP180;51893;59.754;10.110;2022-07-31T13:16:47;101377.60;;;21.10
65290;BMP180;51893;59.754;10.110;2022-07-31T13:19:16;101374.20;;;21.00
65290;BMP180;51893;59.754;10.110;2022-07-31T13:21:44;101375.20;;;21.00
65290;BMP180;51893;59.754;10.110;2022-07-31T13:24:18;101378.80;;;21.00
65290;BMP180;51893;59.754;10.110;2022-07-31T13:26:48;101378.00;;;21.00
65290;BMP180;51893;59.754;10.110;2022-07-31T13:29:16;101377.20;;;21.00
65290;BMP180;51893;59.754;10.110;2022-07-31T13:31:44;101381.00;;;20.90
65290;BMP180;51893;59.754;10.110;2022-07-31T13:34:12;101372.20;;;20.80
65290;BMP180;51893;59.754;10.110;2022-07-31T13:36:40;101371.60;;;20.70
65290;BMP180;51893;59.754;10.110;2022-07-31T13:39:09;101361.80;;;20.60
65290;BMP180;51893;59.754;10.110;2022-07-31T13:41:37;101354.80;;;20.60
65290;BMP180;51893;59.754;10.110;2022-07-31T13:44:06;101349.40;;;20.60
65290;BMP180;51893;59.754;10.110;2022-07-31T13:46:35;101343.60;;;20.60
65290;BMP180;51893;59.754;10.110;2022-07-31T13:49:03;101345.80;;;20.58
65290;BMP180;51893;59.754;10.110;2022-07-31T13:51:36;101342.60;;;20.50
65290;BMP180;51893;59.754;10.110;2022-07-31T13:54:05;101337.20;;;20.50
65290;BMP180;51893;59.754;10.110;2022-07-31T13:56:33;101338.60;;;20.60
65290;BMP180;51893;59.754;10.110;2022-07-31T13:59:10;101334.80;;;20.60
65290;BMP180;51893;59.754;10.110;2022-07-31T14:01:40;101337.00;;;20.60
65290;BMP180;51893;59.754;10.110;2022-07-31T14:04:29;101332.80;;;20.60
65290;BMP180;51893;59.754;10.110;2022-07-31T14:07:00;101335.20;;;20.60
65290;BMP180;51893;59.754;10.110;2022-07-31T14:09:30;101336.60;;;20.60
65290;BMP180;51893;59.754;10.110;2022-07-31T14:12:01;101331.60;;;20.60
65290;BMP180;51893;59.754;10.110;2022-07-31T14:14:31;101331.60;;;20.60
65290;BMP180;51893;59.754;10.110;2022-07-31T14:16:59;101328.80;;;20.60
65290;BMP180;51893;59.754;10.110;2022-07-31T14:19:27;101330.40;;;20.60
65290;BMP180;51893;59.754;10.110;2022-07-31T14:21:54;101332.60;;;20.60
65290;BMP180;51893;59.754;10.110;2022-07-31T14:24:38;101335.40;;;20.42
65290;BMP180;51893;59.754;10.110;2022-07-31T14:27:07;101336.40;;;20.30
65290;BMP180;51893;59.754;10.110;2022-07-31T14:29:35;101334.00;;;20.20
65290;BMP180;51893;59.754;10.110;2022-07-31T14:32:03;101327.00;;;20.10